createdAt,value
2019-04-24T00:00:41.470Z,97701.55
2019-04-24T00:08:16.030Z,97707.64
2019-04-24T00:11:10.083Z,97703.02
2019-04-24T00:15:59.122Z,97708.28
2019-04-24T00:18:53.607Z,97703.00
2019-04-24T00:21:20.077Z,97699.11
2019-04-24T00:23:50.694Z,97708.34
2019-04-24T00:26:09.987Z,97701.67
2019-04-24T00:28:49.545Z,97695.75
2019-04-24T00:31:09.819Z,97692.94
2019-04-24T00:33:50.931Z,97698.84
2019-04-24T00:36:32.452Z,97701.08
2019-04-24T00:38:48.278Z,97695.26
2019-04-24T01:06:49.426Z,97702.08
2019-04-24T01:11:48.589Z,97698.59
2019-04-24T01:14:12.513Z,97695.46
2019-04-24T01:17:06.522Z,97695.77
2019-04-24T01:19:15.977Z,97686.62
2019-04-24T01:22:01.183Z,97698.72
2019-04-24T01:24:12.413Z,97695.36
2019-04-24T01:26:59.837Z,97692.09
2019-04-24T01:31:47.108Z,97691.09
2019-04-24T01:44:55.653Z,97693.33
2019-04-24T01:54:50.703Z,97689.96
2019-04-24T01:57:23.340Z,97693.28
2019-04-24T01:59:48.701Z,97686.94
2019-04-24T02:02:40.442Z,97695.84
2019-04-24T02:04:55.126Z,97699.16
2019-04-24T02:10:38.834Z,97694.86
2019-04-24T02:12:55.253Z,97695.59
2019-04-24T02:15:15.368Z,97694.39
2019-04-24T02:20:24.114Z,97694.45
2019-04-24T02:25:22.710Z,97700.21
2019-04-24T02:30:19.286Z,97693.81
2019-04-24T02:33:03.433Z,97695.73
2019-04-24T02:38:03.878Z,97695.81
2019-04-24T02:40:24.102Z,97692.13
2019-04-24T02:45:24.909Z,97698.41
2019-04-24T02:48:01.006Z,97707.30
2019-04-24T02:50:13.598Z,97702.77
2019-04-24T02:52:58.382Z,97707.11
2019-04-24T03:03:05.602Z,97717.27
2019-04-24T03:17:49.266Z,97705.49
2019-04-24T03:20:51.887Z,97718.55
2019-04-24T03:23:05.031Z,97706.44
2019-04-24T03:28:02.868Z,97704.20
2019-04-24T03:41:21.588Z,97724.92
2019-04-24T03:43:32.895Z,97719.63
2019-04-24T03:45:44.541Z,97729.02
2019-04-24T03:48:19.971Z,97723.61
2019-04-24T03:53:57.930Z,97686.52
2019-04-24T03:55:55.021Z,97737.84
2019-04-24T04:01:08.330Z,97741.30
2019-04-24T04:03:40.911Z,97741.57
2019-04-24T04:06:17.766Z,97733.48
2019-04-24T04:16:19.518Z,97735.33
2019-04-24T04:23:54.031Z,97749.67
2019-04-24T04:26:25.992Z,97725.39
2019-04-24T04:28:59.882Z,97735.75
2019-04-24T04:31:31.188Z,97737.91
2019-04-24T04:41:29.258Z,97753.95
2019-04-24T04:46:54.686Z,97753.58
2019-04-24T04:49:11.129Z,97758.89
2019-04-24T04:51:26.128Z,97759.00
2019-04-24T04:53:55.385Z,97766.73
2019-04-24T04:56:31.743Z,97763.57
2019-04-24T05:04:13.928Z,97772.39
2019-04-24T05:07:09.498Z,97780.99
2019-04-24T05:21:42.485Z,97787.85
2019-04-24T05:27:04.869Z,97788.45
2019-04-24T05:29:02.090Z,97784.74
2019-04-24T05:31:38.318Z,97787.37
2019-04-24T05:36:44.309Z,97794.66
2019-04-24T05:39:26.746Z,97798.19
2019-04-24T05:41:45.393Z,97797.42
2019-04-24T05:46:47.411Z,97814.17
2019-04-24T05:49:14.475Z,97810.59
2019-04-24T05:51:50.776Z,97806.63
2019-04-24T05:54:15.069Z,97808.72
2019-04-24T05:57:21.103Z,97816.01
2019-04-24T06:07:25.067Z,97820.33
2019-04-24T06:12:17.671Z,97818.36
2019-04-24T06:14:54.059Z,97825.11
2019-04-24T06:17:24.006Z,97825.30
2019-04-24T06:20:03.773Z,97820.99
2019-04-24T06:22:25.605Z,97827.10
2019-04-24T06:25:26.605Z,97824.83
2019-04-24T06:27:35.248Z,97831.70
2019-04-24T06:32:36.439Z,97822.16
2019-04-24T06:38:02.884Z,97819.12
2019-04-24T06:40:47.068Z,97828.48
2019-04-24T06:43:06.462Z,97828.77
2019-04-24T06:50:52.298Z,97824.05
2019-04-24T06:57:54.625Z,97829.26
2019-04-24T07:03:33.951Z,97825.00
2019-04-24T07:05:35.891Z,97824.91
2019-04-24T07:08:08.691Z,97825.98
2019-04-24T07:11:02.085Z,97820.36
2019-04-24T07:16:10.116Z,97829.27
2019-04-24T07:18:34.158Z,97824.48
2019-04-24T07:21:21.882Z,97828.98
2019-04-24T07:23:54.570Z,97830.11
2019-04-24T07:28:52.463Z,97822.25
2019-04-24T07:36:46.330Z,97824.77
2019-04-24T07:39:10.707Z,97649.44
2019-04-24T07:44:08.436Z,97831.91
2019-04-24T07:46:41.968Z,97841.73
2019-04-24T07:51:53.368Z,97847.53
2019-04-24T08:02:08.824Z,97838.71
2019-04-24T08:04:50.118Z,97838.84
2019-04-24T08:07:09.416Z,97844.58
2019-04-24T08:10:03.347Z,97849.77
2019-04-24T08:12:07.518Z,97851.91
2019-04-24T08:15:02.914Z,97846.89
2019-04-24T08:17:07.917Z,97844.23
2019-04-24T08:19:51.539Z,97849.24
2019-04-24T08:22:10.893Z,97843.67
2019-04-24T08:29:37.238Z,97856.80
2019-04-24T08:32:25.096Z,97862.24
2019-04-24T08:34:39.237Z,97860.39
2019-04-24T08:37:09.890Z,97849.59
2019-04-24T08:47:27.981Z,97853.57
2019-04-24T08:49:57.227Z,97855.81
2019-04-24T08:55:03.224Z,97852.25
2019-04-24T08:57:25.554Z,97859.64
2019-04-24T09:02:45.278Z,97854.79
2019-04-24T09:07:52.326Z,97865.16
2019-04-24T09:15:17.016Z,97857.70
2019-04-24T09:20:25.625Z,97856.50
2019-04-24T09:22:42.402Z,97864.91
2019-04-24T09:28:05.221Z,97852.36
2019-04-24T09:30:41.982Z,97840.50
2019-04-24T09:38:37.330Z,97865.13
2019-04-24T09:43:56.996Z,97868.20
2019-04-24T09:46:18.512Z,97866.81
2019-04-24T09:56:50.036Z,97848.09
2019-04-24T10:01:40.912Z,97854.55
2019-04-24T10:07:12.142Z,97846.38
2019-04-24T10:12:25.302Z,97840.08
2019-04-24T10:14:40.229Z,97851.80
2019-04-24T10:17:05.385Z,97847.34
2019-04-24T10:19:59.524Z,97844.36
2019-04-24T10:21:58.606Z,97845.85
2019-04-24T10:24:49.450Z,97848.77
2019-04-24T10:27:12.130Z,97843.27
2019-04-24T10:29:55.678Z,97845.53
2019-04-24T10:35:08.218Z,97557.23
2019-04-24T10:38:21.989Z,97837.29
2019-04-24T10:40:27.304Z,97845.02
2019-04-24T10:43:27.141Z,97841.24
2019-04-24T10:45:41.034Z,97844.87
2019-04-24T10:48:41.201Z,97844.01
2019-04-24T10:53:35.149Z,97843.02
2019-04-24T10:58:35.926Z,97831.38
2019-04-24T11:03:52.583Z,97835.09
2019-04-24T11:06:07.100Z,97828.61
2019-04-24T11:09:10.502Z,97836.41
2019-04-24T11:11:34.674Z,97829.22
2019-04-24T11:19:47.641Z,97824.56
2019-04-24T11:22:25.360Z,97823.23
2019-04-24T11:25:05.320Z,97810.80
2019-04-24T11:30:11.610Z,97813.87
2019-04-24T11:38:04.019Z,97795.84
2019-04-24T11:40:36.834Z,97789.94
2019-04-24T11:42:53.877Z,97797.84
2019-04-24T11:45:36.537Z,97794.78
2019-04-24T11:48:12.215Z,97637.05
2019-04-24T11:53:11.482Z,97786.80
2019-04-24T11:55:42.474Z,97779.34
2019-04-24T12:00:36.131Z,97772.55
2019-04-24T12:03:23.528Z,97772.81
2019-04-24T12:11:16.633Z,97778.62
2019-04-24T12:13:51.385Z,97770.82
2019-04-24T12:16:06.540Z,97772.91
2019-04-24T12:21:19.841Z,97773.20
2019-04-24T12:23:48.957Z,97764.89
2019-04-24T12:26:09.583Z,97758.78
2019-04-24T12:28:52.455Z,97762.25
2019-04-24T12:31:05.042Z,97768.61
2019-04-24T12:33:44.803Z,97773.73
2019-04-24T12:36:13.056Z,97762.77
2019-04-24T12:38:55.278Z,97750.33
2019-04-24T12:44:10.652Z,97738.33
2019-04-24T12:49:03.023Z,97740.84
2019-04-24T12:51:36.704Z,97724.75
2019-04-24T12:54:19.748Z,97721.47
2019-04-24T12:57:06.780Z,97722.75
2019-04-24T12:59:19.620Z,97719.63
2019-04-24T13:01:57.587Z,97715.72
2019-04-24T13:06:53.081Z,97707.27
2019-04-24T13:09:35.434Z,97711.12
2019-04-24T13:12:19.694Z,97710.83
2019-04-24T13:14:45.338Z,97701.45
2019-04-24T13:21:44.098Z,97715.92
2019-04-24T13:24:36.347Z,97719.20
2019-04-24T13:27:16.251Z,97705.93
2019-04-24T13:32:37.312Z,97719.30
2019-04-24T13:35:06.401Z,97721.44
2019-04-24T13:37:48.528Z,97717.67
2019-04-24T13:40:18.763Z,97735.28
2019-04-24T13:42:45.915Z,97709.86
2019-04-24T13:45:09.330Z,97706.39
2019-04-24T13:47:46.274Z,97703.08
2019-04-24T13:50:15.536Z,97535.72
2019-04-24T13:53:15.740Z,97674.70
2019-04-24T13:55:03.799Z,97666.69
2019-04-24T13:57:35.849Z,97689.86
2019-04-24T14:00:21.016Z,97686.67
2019-04-24T14:03:03.338Z,97691.91
2019-04-24T14:05:02.061Z,97693.05
2019-04-24T14:10:30.811Z,97689.26
2019-04-24T14:17:24.404Z,97690.53
2019-04-24T14:22:58.412Z,97671.02
2019-04-24T14:25:25.318Z,97670.59
2019-04-24T14:27:55.247Z,97680.42
2019-04-24T14:30:12.505Z,97672.49
2019-04-24T14:32:50.548Z,97675.47
2019-04-24T14:35:18.703Z,97663.18
2019-04-24T14:37:46.886Z,97674.94
2019-04-24T14:40:13.656Z,97669.02
2019-04-24T14:42:38.815Z,97670.56
2019-04-24T14:45:29.810Z,97398.11
2019-04-24T14:47:53.517Z,97674.64
2019-04-24T14:50:24.947Z,97669.21
2019-04-24T14:52:41.983Z,97526.20
2019-04-24T14:57:44.031Z,97669.21
2019-04-24T15:00:18.329Z,97666.23
2019-04-24T15:02:47.065Z,97670.64
2019-04-24T15:05:19.974Z,97689.31
2019-04-24T15:07:51.805Z,97668.27
2019-04-24T15:10:20.957Z,97664.95
2019-04-24T15:12:37.408Z,97662.20
2019-04-24T15:17:37.987Z,97660.89
2019-04-24T15:22:46.951Z,97661.13
2019-04-24T15:30:04.487Z,97664.91
2019-04-24T15:32:35.801Z,97662.25
2019-04-24T15:35:15.235Z,97637.67
2019-04-24T15:37:33.726Z,97502.21
2019-04-24T15:40:19.773Z,97658.63
2019-04-24T15:42:26.568Z,97658.13
2019-04-24T15:47:41.444Z,97662.14
2019-04-24T15:50:00.653Z,97666.56
2019-04-24T15:51:52.774Z,97663.97
2019-04-24T15:54:19.539Z,97667.37
2019-04-24T15:56:46.803Z,97668.75
2019-04-24T15:59:36.596Z,97667.58
2019-04-24T16:02:23.116Z,97668.83
2019-04-24T16:04:52.123Z,97674.35
2019-04-24T16:06:45.752Z,97680.31
2019-04-24T16:09:21.280Z,97679.17
2019-04-24T16:11:48.233Z,97675.63
2019-04-24T16:14:36.835Z,97674.66
2019-04-24T16:17:10.764Z,97687.44
2019-04-24T16:19:40.954Z,97679.70
2019-04-24T16:22:12.685Z,97676.70
2019-04-24T16:24:52.191Z,97686.22
2019-04-24T16:27:09.724Z,97690.06
2019-04-24T16:29:30.472Z,97688.28
2019-04-24T16:32:21.894Z,97687.58
2019-04-24T16:34:34.164Z,97689.32
2019-04-24T16:37:16.676Z,97703.09
2019-04-24T16:39:32.250Z,97690.52
2019-04-24T16:47:23.548Z,97683.92
2019-04-24T16:54:50.917Z,97680.42
2019-04-24T16:57:10.158Z,97682.75
2019-04-24T16:59:31.943Z,97695.69
2019-04-24T17:02:09.481Z,97687.98
2019-04-24T17:04:53.621Z,97689.55
2019-04-24T17:07:20.361Z,97696.50
2019-04-24T17:09:51.059Z,97700.09
2019-04-24T17:12:11.813Z,97687.70
2019-04-24T17:14:45.252Z,97698.89
2019-04-24T17:22:21.535Z,97699.40
2019-04-24T17:24:55.971Z,97695.27
2019-04-24T17:29:43.713Z,97522.95
2019-04-24T17:32:21.793Z,97699.73
2019-04-24T17:35:03.765Z,97691.55
2019-04-24T17:39:25.811Z,97698.80
2019-04-24T17:41:58.324Z,97702.86
2019-04-24T17:50:04.928Z,97706.70
2019-04-24T17:54:40.464Z,97715.30
2019-04-24T17:57:13.146Z,97715.79
2019-04-24T17:59:16.403Z,97740.23
2019-04-24T18:01:43.154Z,97723.95
2019-04-24T18:04:12.019Z,97726.06
2019-04-24T18:06:38.977Z,97732.58
2019-04-24T18:09:07.348Z,97726.38
2019-04-24T18:11:34.231Z,97729.55
2019-04-24T18:14:02.009Z,97732.67
2019-04-24T18:16:29.401Z,97723.57
2019-04-24T18:18:56.163Z,97727.11
2019-04-24T18:21:23.189Z,97731.22
2019-04-24T18:23:50.268Z,97728.55
2019-04-24T18:26:19.041Z,97725.02
2019-04-24T18:28:46.089Z,97732.25
2019-04-24T18:31:14.144Z,97727.02
2019-04-24T18:33:42.114Z,97729.16
2019-04-24T18:36:09.745Z,97735.70
2019-04-24T18:38:36.579Z,97737.92
2019-04-24T18:41:04.327Z,97739.75
2019-04-24T18:43:31.456Z,97747.36
2019-04-24T18:45:58.436Z,97733.55
2019-04-24T18:48:25.541Z,97737.81
2019-04-24T18:50:52.276Z,97739.66
2019-04-24T18:53:21.436Z,97749.92
2019-04-24T18:55:49.129Z,97740.52
2019-04-24T18:58:17.195Z,97737.69
2019-04-24T19:00:44.573Z,97738.94
2019-04-24T19:03:13.966Z,97741.48
2019-04-24T19:05:41.501Z,97741.39
2019-04-24T19:08:08.697Z,97742.90
2019-04-24T19:10:36.000Z,97749.89
2019-04-24T19:13:03.799Z,97744.58
2019-04-24T19:15:32.275Z,97559.06
2019-04-24T19:17:59.187Z,97740.53
2019-04-24T19:20:27.298Z,97754.37
2019-04-24T19:23:02.196Z,97749.06
2019-04-24T19:25:23.365Z,97760.89
2019-04-24T19:27:51.081Z,97753.50
2019-04-24T19:30:21.671Z,97748.79
2019-04-24T19:32:48.724Z,97739.30
2019-04-24T19:35:15.810Z,97739.56
2019-04-24T19:37:42.615Z,97734.84
2019-04-24T19:40:25.652Z,97742.22
2019-04-24T19:42:39.528Z,97737.07
2019-04-24T19:45:06.351Z,97746.58
2019-04-24T19:47:38.641Z,97740.68
2019-04-24T19:50:07.474Z,97739.34
2019-04-24T19:52:31.345Z,97735.52
2019-04-24T19:54:58.615Z,97728.28
2019-04-24T19:57:26.979Z,97734.95
2019-04-24T19:59:54.204Z,97734.28
2019-04-24T20:02:21.584Z,97734.88
2019-04-24T20:04:48.452Z,97734.05
2019-04-24T20:07:15.851Z,97731.88
2019-04-24T20:09:50.288Z,97733.88
2019-04-24T20:12:18.880Z,97739.54
2019-04-24T20:14:46.139Z,97742.95
2019-04-24T20:17:13.466Z,97747.03
2019-04-24T20:19:41.638Z,97746.80
2019-04-24T20:22:08.673Z,97753.55
2019-04-24T20:24:35.815Z,97756.94
2019-04-24T20:27:03.758Z,97762.45
2019-04-24T20:29:31.163Z,97778.60
2019-04-24T20:31:58.018Z,97794.30
2019-04-24T20:34:25.308Z,97813.78
2019-04-24T20:36:52.345Z,97909.14
2019-04-24T20:39:19.618Z,97933.41
2019-04-24T20:41:46.880Z,97982.07
2019-04-24T20:44:15.798Z,97997.31
2019-04-24T20:46:43.537Z,98006.61
2019-04-24T20:49:11.212Z,98034.40
2019-04-24T20:51:38.659Z,98053.16
2019-04-24T20:54:05.933Z,98068.72
2019-04-24T20:56:32.762Z,98066.16
2019-04-24T20:58:59.615Z,98081.17
2019-04-24T21:01:31.516Z,98106.31
2019-04-24T21:03:58.918Z,98136.70
2019-04-24T21:06:28.527Z,98142.89
2019-04-24T21:09:00.327Z,98172.08
2019-04-24T21:11:27.333Z,98180.89
2019-04-24T21:13:54.297Z,98189.23
2019-04-24T21:16:22.794Z,98199.77
2019-04-24T21:18:50.387Z,98225.11
2019-04-24T21:21:17.315Z,98224.46
2019-04-24T21:23:53.935Z,98023.59
2019-04-24T21:26:13.076Z,98244.30
2019-04-24T21:28:41.701Z,98249.86
2019-04-24T21:31:08.583Z,98256.13
2019-04-24T21:33:35.829Z,98276.14
2019-04-24T21:36:03.612Z,98276.37
2019-04-24T21:38:31.379Z,98283.09
2019-04-24T21:40:58.516Z,97864.81
2019-04-24T21:43:29.758Z,98303.45
2019-04-24T21:45:54.902Z,98307.84
2019-04-24T21:48:22.661Z,98300.37
2019-04-24T21:50:50.602Z,98302.06
2019-04-24T21:53:17.463Z,98291.34
2019-04-24T21:55:44.849Z,98281.41
2019-04-24T21:58:12.017Z,98272.38
2019-04-24T22:00:48.185Z,98277.26
2019-04-24T22:03:21.848Z,98272.72
2019-04-24T22:05:56.670Z,98267.12
2019-04-24T22:08:24.687Z,98264.22
2019-04-24T22:10:51.593Z,98268.70
2019-04-24T22:13:18.649Z,98261.13
2019-04-24T22:15:46.208Z,98261.17
2019-04-24T22:18:14.353Z,98272.21
2019-04-24T22:20:45.510Z,98269.04
2019-04-24T22:23:29.791Z,98269.22
2019-04-24T22:25:59.141Z,98274.72
2019-04-24T22:28:26.595Z,98295.75
2019-04-24T22:30:55.719Z,98288.41
2019-04-24T22:33:23.054Z,98286.00
2019-04-24T22:35:52.106Z,98295.97
2019-04-24T22:38:21.268Z,98287.33
2019-04-24T22:40:50.038Z,98337.84
2019-04-24T22:43:18.036Z,98305.77
2019-04-24T22:45:44.900Z,98310.39
2019-04-24T22:48:12.042Z,98313.71
2019-04-24T22:50:39.387Z,98308.50
2019-04-24T22:53:06.267Z,98305.25
2019-04-24T22:55:34.508Z,98314.31
2019-04-24T22:58:02.093Z,98316.13
2019-04-24T23:00:31.776Z,98321.12
2019-04-24T23:02:59.517Z,98322.16
2019-04-24T23:05:26.346Z,98325.34
2019-04-24T23:07:53.574Z,98328.06
2019-04-24T23:10:20.411Z,98324.63
2019-04-24T23:12:47.194Z,98335.58
2019-04-24T23:15:15.766Z,98329.88
2019-04-24T23:17:42.657Z,98325.19
2019-04-24T23:20:11.372Z,98331.05
2019-04-24T23:22:43.244Z,98340.59
2019-04-24T23:25:28.128Z,98340.50
2019-04-24T23:27:59.325Z,98336.36
2019-04-24T23:30:41.165Z,98332.95
2019-04-24T23:33:13.135Z,98330.19
2019-04-24T23:35:41.501Z,98339.87
2019-04-24T23:38:08.875Z,98330.25
2019-04-24T23:40:36.020Z,98327.73
2019-04-24T23:43:03.073Z,98333.08
2019-04-24T23:45:30.429Z,98324.97
2019-04-24T23:47:57.173Z,98329.31
2019-04-24T23:50:24.125Z,98319.95
2019-04-24T23:52:51.875Z,98329.48
2019-04-24T23:55:19.121Z,98326.22
2019-04-24T23:57:46.180Z,98342.59
